createdAt,value
2018-05-02T00:00:42.613Z,99.99
2018-05-02T00:01:42.610Z,99.99
2018-05-02T00:02:42.576Z,99.99
2018-05-02T00:03:42.562Z,99.99
2018-05-02T00:04:42.542Z,99.99
2018-05-02T00:05:42.538Z,99.99
2018-05-02T00:06:42.543Z,99.99
2018-05-02T00:07:42.489Z,99.99
2018-05-02T00:08:42.469Z,99.99
2018-05-02T00:09:42.453Z,99.99
2018-05-02T00:10:42.434Z,99.99
2018-05-02T00:11:42.420Z,99.99
2018-05-02T00:12:42.420Z,99.99
2018-05-02T00:13:42.381Z,99.99
2018-05-02T00:14:42.363Z,99.99
2018-05-02T00:15:42.346Z,99.99
2018-05-02T00:16:42.328Z,99.99
2018-05-02T00:17:42.324Z,99.99
2018-05-02T00:18:42.288Z,99.99
2018-05-02T00:19:42.275Z,99.99
2018-05-02T00:20:42.273Z,99.99
2018-05-02T00:21:42.260Z,99.99
2018-05-02T00:22:42.222Z,99.99
2018-05-02T00:23:42.222Z,99.99
2018-05-02T00:24:42.190Z,99.99
2018-05-02T00:25:42.184Z,99.99
2018-05-02T00:26:42.145Z,99.99
2018-05-02T00:27:42.145Z,99.99
2018-05-02T00:28:42.121Z,99.99
2018-05-02T00:29:42.094Z,99.99
2018-05-02T00:30:42.079Z,99.99
2018-05-02T00:31:42.069Z,99.99
2018-05-02T00:32:42.044Z,99.99
2018-05-02T00:33:42.045Z,99.99
2018-05-02T00:34:42.007Z,99.99
2018-05-02T00:35:41.994Z,99.99
2018-05-02T00:36:41.990Z,99.99
2018-05-02T00:37:41.954Z,99.99
2018-05-02T00:38:41.933Z,99.99
2018-05-02T00:39:41.920Z,99.99
2018-05-02T00:40:41.905Z,99.99
2018-05-02T00:41:41.883Z,99.99
2018-05-02T00:42:41.880Z,99.99
2018-05-02T00:43:41.846Z,99.99
2018-05-02T00:44:41.828Z,99.99
2018-05-02T00:45:41.809Z,99.99
2018-05-02T00:46:41.809Z,99.99
2018-05-02T00:47:41.774Z,99.99
2018-05-02T00:48:41.755Z,99.99
2018-05-02T00:49:41.750Z,99.99
2018-05-02T00:50:41.713Z,99.99
2018-05-02T00:51:41.697Z,99.99
2018-05-02T00:52:41.686Z,99.99
2018-05-02T00:53:41.668Z,99.99
2018-05-02T00:54:41.662Z,99.99
2018-05-02T00:55:41.639Z,99.99
2018-05-02T00:56:41.613Z,99.99
2018-05-02T00:57:41.590Z,99.99
2018-05-02T00:58:41.575Z,99.99
2018-05-02T00:59:41.575Z,99.99
2018-05-02T01:00:41.538Z,99.99
2018-05-02T01:01:41.523Z,99.99
2018-05-02T01:02:41.499Z,99.99
2018-05-02T01:03:41.491Z,99.99
2018-05-02T01:04:41.463Z,99.99
2018-05-02T01:05:41.509Z,99.99
2018-05-02T01:06:41.430Z,99.99
2018-05-02T01:07:41.428Z,99.99
2018-05-02T01:08:41.393Z,99.99
2018-05-02T01:09:41.373Z,99.99
2018-05-02T01:10:41.358Z,99.99
2018-05-02T01:11:41.339Z,99.99
2018-05-02T01:12:41.338Z,99.99
2018-05-02T01:13:41.304Z,99.99
2018-05-02T01:14:41.316Z,99.99
2018-05-02T01:15:41.284Z,99.99
2018-05-02T01:16:41.255Z,99.99
2018-05-02T01:17:41.234Z,99.99
2018-05-02T01:18:41.214Z,99.99
2018-05-02T01:19:41.197Z,99.99
2018-05-02T01:20:41.194Z,99.99
2018-05-02T01:21:41.159Z,99.99
2018-05-02T01:22:41.143Z,99.99
2018-05-02T01:23:41.136Z,99.99
2018-05-02T01:24:41.121Z,99.99
2018-05-02T01:25:41.089Z,99.99
2018-05-02T01:26:41.073Z,99.99
2018-05-02T01:27:41.053Z,99.99
2018-05-02T01:28:41.033Z,99.99
2018-05-02T01:29:41.028Z,99.99
2018-05-02T01:30:41.002Z,99.99
2018-05-02T01:31:40.977Z,99.99
2018-05-02T01:32:40.977Z,99.99
2018-05-02T01:33:40.943Z,99.99
2018-05-02T01:34:40.927Z,99.99
2018-05-02T01:35:40.914Z,99.99
2018-05-02T01:36:40.904Z,99.99
2018-05-02T01:37:40.868Z,99.99
2018-05-02T01:38:40.855Z,99.99
2018-05-02T01:39:40.836Z,99.99
2018-05-02T01:40:40.818Z,99.99
2018-05-02T01:41:40.796Z,99.99
2018-05-02T01:42:40.807Z,99.99
2018-05-02T01:43:40.768Z,99.99
2018-05-02T01:44:40.743Z,99.99
2018-05-02T01:45:40.727Z,99.99
2018-05-02T01:46:40.710Z,99.99
2018-05-02T01:47:40.692Z,99.99
2018-05-02T01:48:40.690Z,99.99
2018-05-02T01:49:40.654Z,99.99
2018-05-02T01:50:40.636Z,99.99
2018-05-02T01:51:40.618Z,99.99
2018-05-02T01:52:40.601Z,99.99
2018-05-02T01:53:40.579Z,99.99
2018-05-02T01:54:40.576Z,99.99
2018-05-02T01:55:40.546Z,99.99
2018-05-02T01:56:40.530Z,99.99
2018-05-02T01:57:40.510Z,99.99
2018-05-02T01:58:40.490Z,99.99
2018-05-02T01:59:40.490Z,99.99
2018-05-02T02:00:40.460Z,99.99
2018-05-02T02:01:40.440Z,99.99
2018-05-02T02:02:40.423Z,99.99
2018-05-02T02:03:40.402Z,99.99
2018-05-02T02:04:40.396Z,99.99
2018-05-02T02:05:40.393Z,99.99
2018-05-02T02:06:40.349Z,99.99
2018-05-02T02:07:40.328Z,99.99
2018-05-02T02:08:40.313Z,99.99
2018-05-02T02:09:40.290Z,99.99
2018-05-02T02:10:40.277Z,99.99
2018-05-02T02:11:40.272Z,99.99
2018-05-02T02:12:40.238Z,99.99
2018-05-02T02:13:40.222Z,99.99
2018-05-02T02:14:40.207Z,99.99
2018-05-02T02:15:40.183Z,99.99
2018-05-02T02:16:40.182Z,99.99
2018-05-02T02:17:40.161Z,99.99
2018-05-02T02:18:40.129Z,99.99
2018-05-02T02:19:40.109Z,99.99
2018-05-02T02:20:40.092Z,99.99
2018-05-02T02:21:40.073Z,99.99
2018-05-02T02:22:40.056Z,99.99
2018-05-02T02:23:40.063Z,99.99
2018-05-02T02:24:40.022Z,99.99
2018-05-02T02:25:40.008Z,99.99
2018-05-02T02:26:39.983Z,99.99
2018-05-02T02:27:39.964Z,99.99
2018-05-02T02:28:39.952Z,99.99
2018-05-02T02:29:39.938Z,99.99
2018-05-02T02:30:39.913Z,99.99
2018-05-02T02:31:39.894Z,99.99
2018-05-02T02:32:39.894Z,99.99
2018-05-02T02:33:39.854Z,99.99
2018-05-02T02:34:39.854Z,99.99
2018-05-02T02:35:39.837Z,99.99
2018-05-02T02:36:39.805Z,99.99
2018-05-02T02:37:39.783Z,99.99
2018-05-02T02:38:39.764Z,99.99
2018-05-02T02:39:39.745Z,99.99
2018-05-02T02:40:39.742Z,99.99
2018-05-02T02:41:39.711Z,99.99
2018-05-02T02:42:39.692Z,99.99
2018-05-02T02:43:39.672Z,99.99
2018-05-02T02:44:39.656Z,99.99
2018-05-02T02:45:39.640Z,99.99
2018-05-02T02:46:39.636Z,99.99
2018-05-02T02:47:39.599Z,99.99
2018-05-02T02:48:39.581Z,99.99
2018-05-02T02:49:39.567Z,99.99
2018-05-02T02:50:39.542Z,99.99
2018-05-02T02:51:39.544Z,99.99
2018-05-02T02:52:39.507Z,99.99
2018-05-02T02:53:39.489Z,99.99
2018-05-02T02:54:39.470Z,99.99
2018-05-02T02:55:39.452Z,99.99
2018-05-02T02:56:39.448Z,99.99
2018-05-02T02:57:39.414Z,99.99
2018-05-02T02:58:39.398Z,99.99
2018-05-02T02:59:39.377Z,99.99
2018-05-02T03:00:39.356Z,99.99
2018-05-02T03:01:39.339Z,99.99
2018-05-02T03:02:39.344Z,99.99
2018-05-02T03:03:39.306Z,99.99
2018-05-02T03:04:39.295Z,99.99
2018-05-02T03:05:39.267Z,99.99
2018-05-02T03:06:39.245Z,99.99
2018-05-02T03:07:39.248Z,99.99
2018-05-02T03:08:39.213Z,99.99
2018-05-02T03:09:39.195Z,99.99
2018-05-02T03:10:39.178Z,99.99
2018-05-02T03:11:39.157Z,99.99
2018-05-02T03:12:39.158Z,99.99
2018-05-02T03:13:39.120Z,99.99
2018-05-02T03:14:39.102Z,99.99
2018-05-02T03:15:39.083Z,99.99
2018-05-02T03:16:39.081Z,99.99
2018-05-02T03:17:39.047Z,99.99
2018-05-02T03:18:39.038Z,99.99
2018-05-02T03:19:39.009Z,99.99
2018-05-02T03:20:38.990Z,99.99
2018-05-02T03:21:38.975Z,99.99
2018-05-02T03:22:38.953Z,99.99
2018-05-02T03:23:38.951Z,99.99
2018-05-02T03:24:38.915Z,99.99
2018-05-02T03:25:38.898Z,99.99
2018-05-02T03:26:38.883Z,99.99
2018-05-02T03:27:38.866Z,99.99
2018-05-02T03:28:38.842Z,99.99
2018-05-02T03:29:38.849Z,99.99
2018-05-02T03:30:38.804Z,99.99
2018-05-02T03:31:38.787Z,99.99
2018-05-02T03:32:38.767Z,99.99
2018-05-02T03:33:38.749Z,99.99
2018-05-02T03:34:38.733Z,99.99
2018-05-02T03:35:38.739Z,99.99
2018-05-02T03:36:38.696Z,99.99
2018-05-02T03:37:38.672Z,99.99
2018-05-02T03:38:38.657Z,99.99
2018-05-02T03:39:38.639Z,99.99
2018-05-02T03:40:38.621Z,99.99
2018-05-02T03:41:59.613Z,99.99
2018-05-02T03:42:38.583Z,99.99
2018-05-02T03:43:38.561Z,99.99
2018-05-02T03:44:38.546Z,99.99
2018-05-02T03:45:38.541Z,99.99
2018-05-02T03:46:38.526Z,99.99
2018-05-02T03:47:38.490Z,99.99
2018-05-02T03:48:38.470Z,99.99
2018-05-02T03:49:38.451Z,99.99
2018-05-02T03:50:38.432Z,99.99
2018-05-02T03:51:38.427Z,99.99
2018-05-02T03:52:38.399Z,99.99
2018-05-02T03:53:38.391Z,99.99
2018-05-02T03:54:38.364Z,99.99
2018-05-02T03:55:38.339Z,99.99
2018-05-02T03:56:38.337Z,99.99
2018-05-02T03:57:38.314Z,99.99
2018-05-02T03:58:38.301Z,99.99
2018-05-02T03:59:38.326Z,99.99
2018-05-02T04:00:38.248Z,99.99
2018-05-02T04:01:38.241Z,99.99
2018-05-02T04:02:38.209Z,99.99
2018-05-02T04:03:38.195Z,99.99
2018-05-02T04:04:38.172Z,99.99
2018-05-02T04:05:38.168Z,99.99
2018-05-02T04:06:38.135Z,99.99
2018-05-02T04:07:38.137Z,99.99
2018-05-02T04:08:38.121Z,99.99
2018-05-02T04:09:38.093Z,99.99
2018-05-02T04:10:38.061Z,99.99
2018-05-02T04:11:38.045Z,99.99
2018-05-02T04:12:38.025Z,99.99
2018-05-02T04:13:38.012Z,99.99
2018-05-02T04:14:37.990Z,99.99
2018-05-02T04:15:37.987Z,99.99
2018-05-02T04:16:37.969Z,99.99
2018-05-02T04:17:37.927Z,99.99
2018-05-02T04:18:37.980Z,99.99
2018-05-02T04:19:37.894Z,99.99
2018-05-02T04:20:37.890Z,99.99
2018-05-02T04:21:37.853Z,99.99
2018-05-02T04:22:37.851Z,99.99
2018-05-02T04:23:37.821Z,99.99
2018-05-02T04:24:37.802Z,99.99
2018-05-02T04:25:37.797Z,99.99
2018-05-02T04:26:37.766Z,99.99
2018-05-02T04:27:37.745Z,99.99
2018-05-02T04:28:37.741Z,99.99
2018-05-02T04:29:37.704Z,99.99
2018-05-02T04:30:37.687Z,99.99
2018-05-02T04:31:37.669Z,99.99
2018-05-02T04:32:37.650Z,99.99
2018-05-02T04:33:37.633Z,99.99
2018-05-02T04:34:37.634Z,99.99
2018-05-02T04:35:37.595Z,99.99
2018-05-02T04:36:37.578Z,99.99
2018-05-02T04:37:37.560Z,99.99
2018-05-02T04:38:37.545Z,99.99
2018-05-02T04:39:58.535Z,99.99
2018-05-02T04:40:37.522Z,99.99
2018-05-02T04:41:37.485Z,99.99
2018-05-02T04:42:37.468Z,99.99
2018-05-02T04:43:37.451Z,99.99
2018-05-02T04:44:37.434Z,99.99
2018-05-02T04:45:38.084Z,99.99
2018-05-02T04:46:38.068Z,99.99
2018-05-02T04:47:37.376Z,99.99
2018-05-02T04:48:37.361Z,99.99
2018-05-02T04:49:37.337Z,99.99
2018-05-02T04:50:37.320Z,99.99
2018-05-02T04:51:37.303Z,99.99
2018-05-02T04:52:37.322Z,99.99
2018-05-02T04:53:37.267Z,99.99
2018-05-02T04:54:37.255Z,99.99
2018-05-02T04:56:56.704Z,99.99
2018-05-02T04:57:37.214Z,99.99
2018-05-02T04:58:37.223Z,99.99
2018-05-02T04:59:37.210Z,99.99
2018-05-02T05:00:37.163Z,99.99
2018-05-02T05:01:37.143Z,99.99
2018-05-02T05:02:37.127Z,99.99
2018-05-02T05:03:37.087Z,99.99
2018-05-02T05:04:37.130Z,99.99
2018-05-02T05:05:37.050Z,99.99
2018-05-02T05:06:37.040Z,99.99
2018-05-02T05:07:37.039Z,99.99
2018-05-02T05:08:37.009Z,99.99
2018-05-02T05:09:36.973Z,99.99
2018-05-02T05:10:36.983Z,99.99
2018-05-02T05:11:36.983Z,99.99
2018-05-02T05:12:36.953Z,99.99
2018-05-02T05:13:36.916Z,99.99
2018-05-02T05:14:36.894Z,99.99
2018-05-02T05:15:36.869Z,99.99
2018-05-02T05:16:36.857Z,99.99
2018-05-02T05:17:36.863Z,99.99
2018-05-02T05:18:36.818Z,99.99
2018-05-02T05:19:36.799Z,99.99
2018-05-02T05:20:36.779Z,99.99
2018-05-02T05:21:36.764Z,99.99
2018-05-02T05:22:36.744Z,99.99
2018-05-02T05:23:36.747Z,99.99
2018-05-02T05:24:36.714Z,99.99
2018-05-02T05:25:36.690Z,99.99
2018-05-02T05:26:36.677Z,99.99
2018-05-02T05:27:36.655Z,99.99
2018-05-02T05:28:36.649Z,99.99
2018-05-02T05:29:36.640Z,99.99
2018-05-02T05:30:36.625Z,99.40
2018-05-02T05:31:36.583Z,99.40
2018-05-02T05:32:36.570Z,99.69
2018-05-02T05:33:36.553Z,99.69
2018-05-02T05:34:36.579Z,99.21
2018-05-02T05:35:36.535Z,99.11
2018-05-02T05:36:36.510Z,98.55
2018-05-02T05:37:36.521Z,98.64
2018-05-02T05:38:36.466Z,97.78
2018-05-02T05:39:36.447Z,98.64
2018-05-02T05:40:36.452Z,98.45
2018-05-02T05:41:36.430Z,98.17
2018-05-02T05:42:36.399Z,98.17
2018-05-02T05:43:36.404Z,97.41
2018-05-02T05:44:37.074Z,97.88
2018-05-02T05:45:36.345Z,97.03
2018-05-02T05:46:36.322Z,96.93
2018-05-02T05:47:36.307Z,96.74
2018-05-02T05:48:36.300Z,96.26
2018-05-02T05:49:36.269Z,96.36
2018-05-02T05:50:36.268Z,97.22
2018-05-02T05:51:36.240Z,97.12
2018-05-02T05:52:36.237Z,97.31
2018-05-02T05:53:57.229Z,96.93
2018-05-02T05:54:36.257Z,96.55
2018-05-02T05:55:36.167Z,96.84
2018-05-02T05:56:36.151Z,96.41
2018-05-02T05:57:36.141Z,96.50
2018-05-02T05:58:36.112Z,96.50
2018-05-02T05:59:36.115Z,96.69
2018-05-02T06:00:36.083Z,96.98
2018-05-02T06:01:36.073Z,95.65
2018-05-02T06:02:36.045Z,95.17
2018-05-02T06:03:36.028Z,95.36
2018-05-02T06:04:36.007Z,95.27
2018-05-02T06:05:36.006Z,95.27
2018-05-02T06:06:35.971Z,95.46
2018-05-02T06:07:35.971Z,96.79
2018-05-02T06:08:35.943Z,95.36
2018-05-02T06:09:35.922Z,95.56
2018-05-02T06:10:35.909Z,95.27
2018-05-02T06:11:35.910Z,95.17
2018-05-02T06:12:35.902Z,94.42
2018-05-02T06:13:35.856Z,94.60
2018-05-02T06:14:35.852Z,93.75
2018-05-02T06:15:35.827Z,93.60
2018-05-02T06:16:35.801Z,93.79
2018-05-02T06:17:35.801Z,93.84
2018-05-02T06:18:35.768Z,93.79
2018-05-02T06:19:35.746Z,93.51
2018-05-02T06:20:35.733Z,92.46
2018-05-02T06:21:35.711Z,92.36
2018-05-02T06:22:35.711Z,92.08
2018-05-02T06:23:35.678Z,91.42
2018-05-02T06:24:35.663Z,92.18
2018-05-02T06:25:35.644Z,91.70
2018-05-02T06:26:35.625Z,92.46
2018-05-02T06:27:35.628Z,91.61
2018-05-02T06:28:35.590Z,91.51
2018-05-02T06:29:35.583Z,91.42
2018-05-02T06:30:35.556Z,91.61
2018-05-02T06:31:35.583Z,90.94
2018-05-02T06:32:35.557Z,90.75
2018-05-02T06:33:35.509Z,91.13
2018-05-02T06:34:35.480Z,90.75
2018-05-02T06:35:35.468Z,90.94
2018-05-02T06:36:35.449Z,90.47
2018-05-02T06:37:35.496Z,90.28
2018-05-02T06:38:35.437Z,88.79
2018-05-02T06:39:35.397Z,88.51
2018-05-02T06:40:35.381Z,87.94
2018-05-02T06:41:35.374Z,87.56
2018-05-02T06:42:35.346Z,86.22
2018-05-02T06:43:35.402Z,87.27
2018-05-02T06:44:35.312Z,86.61
2018-05-02T06:45:35.314Z,86.22
2018-05-02T06:46:35.284Z,86.42
2018-05-02T06:47:35.262Z,86.51
2018-05-02T06:48:35.259Z,86.42
2018-05-02T06:49:35.253Z,86.80
2018-05-02T06:50:35.208Z,87.56
2018-05-02T06:51:35.214Z,87.46
2018-05-02T06:52:35.186Z,87.46
2018-05-02T06:53:35.163Z,87.75
2018-05-02T06:54:35.177Z,87.27
2018-05-02T06:55:35.154Z,86.99
2018-05-02T06:56:35.115Z,87.18
2018-05-02T06:57:35.092Z,86.90
2018-05-02T06:58:35.075Z,87.51
2018-05-02T06:59:35.056Z,87.18
2018-05-02T07:00:35.037Z,87.41
2018-05-02T07:01:35.047Z,87.51
2018-05-02T07:02:35.009Z,88.08
2018-05-02T07:03:34.989Z,87.60
2018-05-02T07:04:34.973Z,87.60
2018-05-02T07:05:34.957Z,86.84
2018-05-02T07:06:34.939Z,86.65
2018-05-02T07:07:34.937Z,86.27
2018-05-02T07:08:34.918Z,86.08
2018-05-02T07:09:34.891Z,84.65
2018-05-02T07:10:34.875Z,85.03
2018-05-02T07:11:34.855Z,85.46
2018-05-02T07:12:34.856Z,86.22
2018-05-02T07:13:34.825Z,85.27
2018-05-02T07:14:34.811Z,84.60
2018-05-02T07:15:34.782Z,84.46
2018-05-02T07:16:34.770Z,85.08
2018-05-02T07:17:34.769Z,86.22
2018-05-02T07:18:34.731Z,86.69
2018-05-02T07:19:34.715Z,85.17
2018-05-02T07:20:34.702Z,85.93
2018-05-02T07:21:34.679Z,86.22
2018-05-02T07:22:34.671Z,86.32
2018-05-02T07:23:34.677Z,84.60
2018-05-02T07:24:34.632Z,84.79
2018-05-02T07:25:34.622Z,85.84
2018-05-02T07:26:34.597Z,84.83
2018-05-02T07:27:34.600Z,84.83
2018-05-02T07:28:34.564Z,85.02
2018-05-02T07:29:34.549Z,84.92
2018-05-02T07:30:34.584Z,85.78
2018-05-02T07:31:34.517Z,85.78
2018-05-02T07:32:34.516Z,83.69
2018-05-02T07:33:34.499Z,82.68
2018-05-02T07:34:34.468Z,80.92
2018-05-02T07:35:34.451Z,81.40
2018-05-02T07:36:34.438Z,82.68
2018-05-02T07:37:34.419Z,83.25
2018-05-02T07:38:34.418Z,83.35
2018-05-02T07:39:34.380Z,82.97
2018-05-02T07:40:34.368Z,82.30
2018-05-02T07:41:34.351Z,80.58
2018-05-02T07:42:34.337Z,80.33
2018-05-02T07:43:34.314Z,79.86
2018-05-02T07:44:34.339Z,79.77
2018-05-02T07:45:34.311Z,79.38
2018-05-02T07:46:34.269Z,79.38
2018-05-02T07:47:34.250Z,79.10
2018-05-02T07:48:34.324Z,78.33
2018-05-02T07:49:34.220Z,78.43
2018-05-02T07:50:34.234Z,78.72
2018-05-02T07:51:34.184Z,77.99
2018-05-02T07:52:34.170Z,78.18
2018-05-02T07:53:34.158Z,77.51
2018-05-02T07:54:34.138Z,78.37
2018-05-02T07:55:34.120Z,77.61
2018-05-02T07:56:34.141Z,77.99
2018-05-02T07:57:34.104Z,77.80
2018-05-02T07:58:34.079Z,76.08
2018-05-02T07:59:34.060Z,75.70
2018-05-02T08:00:34.044Z,75.51
2018-05-02T08:01:34.051Z,75.22
2018-05-02T08:02:34.009Z,75.07
2018-05-02T08:03:33.995Z,75.07
2018-05-02T08:04:33.980Z,74.40
2018-05-02T08:05:33.967Z,72.87
2018-05-02T08:06:33.947Z,72.49
2018-05-02T08:07:33.947Z,71.92
2018-05-02T08:08:33.910Z,71.82
2018-05-02T08:09:33.902Z,71.34
2018-05-02T08:10:33.885Z,71.34
2018-05-02T08:11:33.878Z,71.25
2018-05-02T08:12:33.869Z,71.72
2018-05-02T08:13:33.853Z,71.38
2018-05-02T08:14:33.823Z,70.67
2018-05-02T08:15:33.822Z,70.67
2018-05-02T08:16:33.813Z,71.67
2018-05-02T08:17:33.769Z,70.81
2018-05-02T08:18:33.757Z,69.85
2018-05-02T08:19:33.764Z,68.70
2018-05-02T08:20:33.724Z,68.70
2018-05-02T08:21:33.715Z,68.70
2018-05-02T08:22:33.747Z,69.18
2018-05-02T08:23:33.688Z,69.41
2018-05-02T08:24:33.692Z,69.09
2018-05-02T08:25:33.648Z,68.74
2018-05-02T08:26:33.634Z,69.31
2018-05-02T08:27:33.619Z,69.89
2018-05-02T08:28:33.606Z,70.07
2018-05-02T08:29:33.603Z,70.46
2018-05-02T08:30:33.578Z,68.26
2018-05-02T08:31:33.561Z,66.73
2018-05-02T08:32:33.549Z,66.54
2018-05-02T08:33:33.525Z,66.44
2018-05-02T08:34:33.512Z,66.19
2018-05-02T08:35:33.512Z,65.48
2018-05-02T08:36:33.481Z,65.87
2018-05-02T08:37:33.467Z,66.63
2018-05-02T08:38:33.451Z,65.97
2018-05-02T08:39:33.438Z,65.81
2018-05-02T08:40:33.445Z,66.00
2018-05-02T08:41:33.413Z,65.81
2018-05-02T08:42:33.391Z,65.52
2018-05-02T08:43:33.377Z,63.89
2018-05-02T08:44:33.365Z,63.23
2018-05-02T08:45:33.352Z,60.64
2018-05-02T08:46:33.349Z,56.17
2018-05-02T08:47:33.325Z,56.46
2018-05-02T08:48:33.302Z,56.37
2018-05-02T08:49:33.286Z,54.28
2018-05-02T08:50:33.272Z,53.04
2018-05-02T08:51:33.276Z,53.71
2018-05-02T08:52:33.266Z,52.56
2018-05-02T08:53:33.227Z,53.07
2018-05-02T08:54:33.215Z,52.28
2018-05-02T08:55:33.198Z,52.28
2018-05-02T08:56:33.192Z,52.85
2018-05-02T08:57:33.171Z,52.20
2018-05-02T08:58:33.173Z,52.01
2018-05-02T08:59:33.160Z,50.20
2018-05-02T09:00:33.124Z,49.84
2018-05-02T09:01:33.112Z,50.22
2018-05-02T09:02:33.096Z,50.53
2018-05-02T09:03:33.103Z,49.07
2018-05-02T09:04:33.089Z,48.78
2018-05-02T09:05:33.054Z,49.38
2018-05-02T09:06:33.039Z,47.85
2018-05-02T09:07:33.025Z,47.75
2018-05-02T09:08:33.009Z,47.22
2018-05-02T09:09:41.616Z,47.20
2018-05-02T09:10:39.607Z,48.35
2018-05-02T09:11:32.968Z,48.83
2018-05-02T09:12:32.953Z,48.61
2018-05-02T09:13:34.618Z,48.95
2018-05-02T09:14:32.953Z,50.34
2018-05-02T09:15:32.922Z,50.87
2018-05-02T09:16:32.896Z,49.96
2018-05-02T09:17:32.883Z,49.02
2018-05-02T09:18:32.871Z,48.28
2018-05-02T09:19:32.854Z,46.96
2018-05-02T09:20:32.857Z,45.95
2018-05-02T09:21:32.830Z,45.01
2018-05-02T09:22:32.824Z,46.07
2018-05-02T09:23:32.806Z,46.62
2018-05-02T09:24:32.790Z,47.08
2018-05-02T09:25:32.776Z,47.20
2018-05-02T09:26:32.779Z,46.94
2018-05-02T09:27:32.765Z,45.78
2018-05-02T09:28:32.737Z,46.19
2018-05-02T09:29:32.736Z,47.10
2018-05-02T09:30:32.723Z,44.51
2018-05-02T09:31:32.723Z,43.64
2018-05-02T09:32:32.699Z,43.54
2018-05-02T09:33:32.708Z,44.60
2018-05-02T09:34:32.675Z,43.47
2018-05-02T09:35:32.664Z,43.26
2018-05-02T09:36:32.671Z,43.16
2018-05-02T09:37:32.645Z,43.74
2018-05-02T09:38:32.643Z,46.12
2018-05-02T09:39:32.630Z,46.34
2018-05-02T09:40:33.229Z,46.07
2018-05-02T09:41:32.635Z,44.56
2018-05-02T09:42:32.609Z,44.29
2018-05-02T09:43:32.601Z,43.12
2018-05-02T09:44:32.594Z,43.04
2018-05-02T09:45:32.585Z,43.14
2018-05-02T09:46:32.580Z,42.87
2018-05-02T09:47:32.590Z,43.45
2018-05-02T09:48:32.558Z,42.10
2018-05-02T09:49:32.564Z,42.39
2018-05-02T09:50:32.571Z,43.52
2018-05-02T09:51:32.548Z,43.37
2018-05-02T09:52:32.573Z,43.07
2018-05-02T09:53:32.530Z,44.58
2018-05-02T09:54:32.522Z,46.48
2018-05-02T09:55:32.517Z,47.34
2018-05-02T09:56:32.510Z,46.58
2018-05-02T09:57:32.505Z,46.94
2018-05-02T09:58:32.513Z,47.46
2018-05-02T09:59:32.492Z,49.07
2018-05-02T10:00:32.488Z,50.15
2018-05-02T10:01:32.479Z,49.41
2018-05-02T10:02:32.472Z,47.32
2018-05-02T10:03:32.489Z,46.77
2018-05-02T10:04:32.522Z,45.92
2018-05-02T10:05:32.463Z,46.31
2018-05-02T10:06:32.445Z,45.08
2018-05-02T10:07:32.431Z,44.82
2018-05-02T10:08:32.424Z,44.34
2018-05-02T10:09:32.440Z,43.97
2018-05-02T10:10:33.339Z,43.59
2018-05-02T10:11:32.432Z,43.41
2018-05-02T10:12:32.415Z,43.41
2018-05-02T10:13:32.409Z,43.18
2018-05-02T10:14:32.415Z,45.47
2018-05-02T10:15:32.396Z,46.23
2018-05-02T10:16:32.376Z,46.41
2018-05-02T10:17:32.371Z,47.22
2018-05-02T10:18:32.388Z,49.21
2018-05-02T10:19:32.362Z,49.76
2018-05-02T10:20:32.372Z,49.82
2018-05-02T10:21:32.355Z,48.16
2018-05-02T10:22:32.351Z,47.00
2018-05-02T10:23:34.133Z,47.82
2018-05-02T10:24:32.335Z,49.15
2018-05-02T10:25:32.346Z,50.22
2018-05-02T10:26:32.324Z,52.69
2018-05-02T10:27:32.353Z,53.77
2018-05-02T10:28:32.312Z,53.09
2018-05-02T10:29:32.303Z,52.48
2018-05-02T10:30:32.302Z,50.13
2018-05-02T10:31:32.322Z,48.59
2018-05-02T10:32:32.312Z,47.68
2018-05-02T10:33:32.357Z,45.29
2018-05-02T10:34:32.278Z,44.60
2018-05-02T10:35:32.275Z,45.54
2018-05-02T10:36:32.258Z,47.05
2018-05-02T10:39:04.611Z,44.51
2018-05-02T10:40:04.582Z,44.91
2018-05-02T10:41:04.579Z,44.53
2018-05-02T10:42:04.588Z,43.85
2018-05-02T10:43:04.675Z,43.78
2018-05-02T10:44:04.561Z,44.45
2018-05-02T10:45:04.558Z,44.05
2018-05-02T10:46:04.572Z,45.98
2018-05-02T10:47:04.545Z,49.62
2018-05-02T10:48:04.547Z,48.49
2018-05-02T10:49:04.556Z,48.13
2018-05-02T10:50:04.534Z,46.64
2018-05-02T10:51:04.535Z,46.55
2018-05-02T10:52:04.535Z,44.82
2018-05-02T10:53:04.523Z,44.62
2018-05-02T10:54:04.505Z,44.51
2018-05-02T10:55:04.531Z,44.65
2018-05-02T10:56:04.493Z,45.15
2018-05-02T10:57:04.496Z,43.54
2018-05-02T10:58:04.492Z,43.37
2018-05-02T10:59:04.497Z,42.03
2018-05-02T11:00:04.484Z,42.30
2018-05-02T11:01:04.485Z,42.94
2018-05-02T11:02:04.473Z,44.27
2018-05-02T11:03:04.466Z,44.56
2018-05-02T11:04:04.463Z,45.15
2018-05-02T11:05:04.489Z,44.60
2018-05-02T11:06:04.465Z,43.37
2018-05-02T11:07:04.445Z,42.60
2018-05-02T11:08:04.440Z,42.12
2018-05-02T11:09:04.430Z,41.91
2018-05-02T11:10:04.425Z,43.18
2018-05-02T11:11:04.438Z,44.53
2018-05-02T11:12:25.442Z,43.62
2018-05-02T11:13:04.417Z,43.74
2018-05-02T11:14:04.419Z,42.53
2018-05-02T11:15:04.403Z,43.18
2018-05-02T11:16:04.400Z,42.24
2018-05-02T11:17:04.405Z,40.31
2018-05-02T11:18:04.404Z,40.88
2018-05-02T11:19:04.385Z,40.80
2018-05-02T11:20:04.392Z,42.41
2018-05-02T11:21:04.376Z,42.05
2018-05-02T11:22:04.378Z,40.81
2018-05-02T11:23:04.376Z,40.34
2018-05-02T11:24:04.373Z,39.29
2018-05-02T11:25:04.356Z,39.22
2018-05-02T11:26:04.352Z,38.83
2018-05-02T11:27:04.343Z,38.79
2018-05-02T11:28:04.343Z,39.64
2018-05-02T11:29:04.357Z,40.24
2018-05-02T11:30:04.335Z,40.20
2018-05-02T11:31:04.347Z,39.91
2018-05-02T11:32:04.330Z,39.24
2018-05-02T11:33:04.346Z,39.43
2018-05-02T11:34:04.343Z,38.66
2018-05-02T11:35:04.325Z,38.72
2018-05-02T11:36:04.329Z,39.79
2018-05-02T11:37:04.314Z,40.18
2018-05-02T11:38:04.304Z,38.76
2018-05-02T11:39:04.317Z,37.99
2018-05-02T11:40:04.313Z,39.81
2018-05-02T11:41:04.295Z,39.33
2018-05-02T11:42:04.293Z,39.45
2018-05-02T11:43:04.290Z,38.85
2018-05-02T11:44:04.305Z,37.79
2018-05-02T11:45:04.298Z,38.85
2018-05-02T11:46:04.282Z,38.66
2018-05-02T11:47:04.266Z,39.36
2018-05-02T11:48:04.269Z,37.54
2018-05-02T11:49:04.277Z,37.64
2018-05-02T11:50:04.259Z,37.27
2018-05-02T11:51:04.258Z,38.91
2018-05-02T11:52:04.248Z,38.14
2018-05-02T11:53:04.254Z,37.74
2018-05-02T11:54:04.248Z,37.64
2018-05-02T11:55:04.258Z,38.60
2018-05-02T11:56:04.232Z,39.20
2018-05-02T11:57:04.234Z,38.24
2018-05-02T11:58:04.229Z,36.81
2018-05-02T11:59:04.278Z,37.54
2018-05-02T12:00:04.232Z,37.01
2018-05-02T12:01:04.219Z,37.10
2018-05-02T12:02:04.214Z,36.83
2018-05-02T12:03:04.233Z,37.33
2018-05-02T12:04:04.209Z,35.69
2018-05-02T12:05:04.219Z,36.07
2018-05-02T12:06:04.207Z,36.85
2018-05-02T12:07:04.194Z,37.60
2018-05-02T12:08:04.219Z,36.97
2018-05-02T12:09:04.191Z,39.14
2018-05-02T12:10:04.204Z,39.53
2018-05-02T12:11:04.196Z,40.08
2018-05-02T12:12:04.187Z,40.68
2018-05-02T12:13:04.181Z,39.72
2018-05-02T12:14:25.191Z,40.66
2018-05-02T12:15:04.169Z,40.76
2018-05-02T12:16:04.206Z,40.89
2018-05-02T12:17:04.164Z,40.41
2018-05-02T12:18:04.161Z,40.26
2018-05-02T12:19:04.167Z,39.29
2018-05-02T12:20:04.171Z,38.91
2018-05-02T12:21:04.172Z,39.70
2018-05-02T12:22:04.145Z,39.14
2018-05-02T12:23:04.136Z,37.50
2018-05-02T12:24:04.136Z,38.93
2018-05-02T12:25:04.146Z,39.11
2018-05-02T12:26:04.121Z,39.20
2018-05-02T12:27:04.124Z,39.11
2018-05-02T12:28:04.120Z,38.62
2018-05-02T12:29:04.115Z,39.49
2018-05-02T12:30:04.136Z,39.49
2018-05-02T12:31:04.118Z,39.49
2018-05-02T12:32:04.109Z,40.45
2018-05-02T12:33:04.101Z,40.16
2018-05-02T12:34:04.095Z,39.89
2018-05-02T12:35:04.091Z,39.61
2018-05-02T12:36:04.098Z,39.59
2018-05-02T12:37:04.080Z,40.95
2018-05-02T12:38:04.095Z,40.95
2018-05-02T12:39:04.098Z,40.86
2018-05-02T12:40:04.067Z,40.64
2018-05-02T12:41:04.070Z,40.24
2018-05-02T12:42:04.063Z,40.16
2018-05-02T12:43:04.059Z,40.45
2018-05-02T12:44:04.077Z,40.36
2018-05-02T12:45:04.047Z,40.43
2018-05-02T12:46:04.047Z,40.81
2018-05-02T12:47:04.043Z,41.28
2018-05-02T12:48:04.046Z,42.22
2018-05-02T12:49:04.053Z,42.58
2018-05-02T12:50:04.053Z,42.82
2018-05-02T12:51:04.033Z,41.86
2018-05-02T12:52:04.023Z,41.86
2018-05-02T12:53:04.029Z,41.86
2018-05-02T12:54:04.024Z,41.59
2018-05-02T12:55:04.017Z,42.26